Rosslare, Ireland
Current Conditions -  °F | °C
As of 1:00 PM on Saturday 25 Oct 2014 (Local Time) from EIWF Reporting Station
Broken Clouds Broken Clouds  
Wind Chill: 55°   Ceiling: 4000
Heat Index: 55°   Visibility: 6mi
Dew Point: 50°   Wind: 18mph
Humidity: 82%   Direction: 250°WSW
Pressure: 29.94"   Gusts: 30mph
Location:  52.27°N, 6.39°W
Report Text: EIWF 251300Z 25016G26KT 210V290 9999 FEW020 BKN040 13/10 Q1014
Loading
Personal Weather Stations






























Interactive Weather Map
Tropical Storm Tracking
New forecast layout! Learn more

10-Day Weather Forecast

Advertisements
Track Severe Weather on mobile